Timeline UpdatesTrip UpdatesNews PostsPvt PostsTravel TipsAdmin PostsConv PostsFollowed PostsChat RequestsBlog PostsPNR Posts

Disclaimer
Search
 
 
Tue Jul 29, 2014 12:12:38 ISTHomeTrainsΣChainsAtlasPNRForumGalleryNewsFAQTripsMembersLoginFeedback
No Recent News for this Train
Other Trains in the News **new
Latest...
Temporary Stop at Vindhyachal (BDL) for 2 min from 31/3/14-11/4/14 #1040164. ***Temporary Augmentation of 1 3AC coach from 4/4/14-27/6/14 #1043381
Wed Apr 02, 2014 (11:27PM)
⇐ Return Journey: Train# 15648

15647/Mumbai LTT-Guwahati Weekly Express

Nov 15 2013 (5:21PM)
Change Departure Station:
Change Arrival Station:
Post a Train Travel TipPost a Train Travel Tip **new
Post a Comment/Question/Picture/VideoPost a Comment/Question/Picture/Video
Pantry/Catering
✓ Pantry Car Avbl
✓ Catering Avbl
RSA - Rake Sharing
Rake/Coach Composition
2A-1; 3A-3; SL-12; GEN-3; PC-1; SLR-2 :: 22 COACH
Loco
ET-GHY =>ET WDMx
News    PNR    Forum    Time-Table    Availability    Fare Chart    Map    Arr/Dep History    Trips    Gallery    ΣChains    X/O    Timeline    
Travel Time: 49h 50m    49 halts    Distance: 2575 km    Avg Speed: 51 km/hr
Type: Mail/Express
Zone: NFR/Northeast Frontier
Departs @ 11:10 (Avg 23m late)
Platform# 1
     F 
Devlali/DVL 
Arrives @ 13:00 +2 nights (Avg 1h 9m late)
Platform# ???
S      
Guwahati/GHY 

49 halts. 400 intermediate Stations between Devlali and Guwahati

Show ALL intermediate Stations  Show Old Time-Table

#CodeStation NameX/OArrivesAvgDepartsAvgHaltPFDay#KmSpeedElevZoneAddress
1LTTMumbai Lokmanya Tilak Terminus (5)  -08:05+051-163.4737mCRMumbai, Maharashtra
2KYNKalyan Junction (8)X  08:35+1908:40+195m41-126.74310mCRKalyan 421301, Maharashtra
3IGPIgatpuri (4)10:35+310:40+85m21-44.996589mCRIgatpuri 422403, Maharashtra
4DVL»Devlali (3)»X  11:08+2211:10+232m110.019561mCRDist. Nashik 422401, Maharashtra
5NKNasik Road (3)  11:28+1311:30+162m115.779563mCRNashik 422101, Maharashtra
6MMRManmad Junction (6)  12:25+1212:30+115m1178.582580mCRManmad 423104, Maharashtra
7BSLBhusaval Junction (8)X  14:45+1814:55+2810m--1262.776208mCRBhusaval 425201, Maharashtra
8BAUBurhanpur (2)X  15:38+4115:40+422m21317.236269mCRBurhanpur, Madhya Pradesh
9KNWKhandwa Junction (5)  17:35+117:40+25m--1386.1111310mCRKhandwa, Madhya Pradesh
10HDHarda (3)OO  18:38+2618:40+262m--1493.757289mWCRHarda, Madhya Pradesh
11ETItarsi Junction (7)X20:00+420:10+1710m--1569.572329mWCRItarsi 461111, Madhya Pradesh
12PPIPipariya (3)  21:06+3821:08+382m--1636.781338mWCRPiparia, Madhya Pradesh
13JBPJabalpur Junction (4)X  23:20+4723:30+4910m41814.778416mWCRJabalpur, Madhya Pradesh
14KTEKatni Junction (6)X  00:40+5200:45+525m--2905.369387mWCRKatni, Madhya Pradesh
15STASatna Junction (3)XO  02:10+3702:20+3910m--21003.745322mWCRSatna, Madhya Pradesh
16COIChheoki Junction (3)  06:05+1306:10+175m--21173.78096mNCRDist.-Allahabad, Uttar Pradesh
17MZPMirzapur (3)X  07:10+3207:15+325m--21254.13888mNCRMirzapur, Uttar Pradesh
18MGSMughal Sarai Junction (8)  08:55+2109:10+2115m--21317.37583mECRMughalsarai 232101, Uttar Pradesh
19DLNDildarnagar Junction (2)  09:56+2809:58+292m--21375.08072mECRDildarnagar, Uttar Pradesh
20BXRBuxar (3)  10:25+3310:27+352m--21411.28967mECRBuxar, Bihar
21DUREDumraon (3)X  10:38+4010:40+402m--21427.58070mECRDumraon, Bihar
22ARAAra Junction (3)  11:19+4211:21+422m--21479.79163mECRarrah( 06182-233411), Bihar
23DNRDanapur (5)X  11:47+1:2111:57+1:3710m--21519.21158mECRKhagaul, Bihar
24PNBEPatna Junction (10)X  12:50+1:2913:00+1:4010m821528.63557mECRPatna 800001, Bihar
25PNCPatna Saheb (3)  13:17+1:4913:19+1:532m--21538.54359mECRPatna, Bihar
26FUTFatwa (6)X  13:36+1:5113:38+1:522m--21550.76353mECRPatna, Bihar
27KOOKhusropur (2)  13:46+1:5613:48+1:572m--21559.26252mECRPatna, Bihar
28BKPBakhtiyarpur Junction (5)  14:02+2:0714:04+2:132m--21573.76151mECRPatna, Bihar
29BARHBarh (3)  14:22+2:1814:24+2:192m--21592.04349mECRBarh, Bihar
30MKAMokama Junction (3)X  15:00+2:0815:05+2:055m--21617.95648mECRPatna, Bihar
31HTZHathidah Junction (2)  15:14+2:0715:16+2:072m121626.36350mECRMusahari, Bihar
32BRYABarhiya (3)  15:25+2:1015:27+2:102m--21635.63547mECRBarahiya, Bihar
33LKRLuckeesarai Junction (2)  15:53+2:0415:55+2:042m--21650.7852mECRLakhisarai, Bihar
34KIULKiul Junction (5)X  16:05+2:0116:12+2:017m--21652.15153mECRDist. Lakhisarai, Bihar
35AHAAbhaipur  16:39+2:1116:41+2:112m--21675.14252mERAbhaipur, Bihar
36JMPJamalpur Junction (4)X  17:12+2:1917:27+2:1815m--21696.96159mERJamalpur 06344-243101, Bihar
37BUPBariarpur (3)  17:38+2:2317:40+2:232m--21708.15442mERMunger, Bihar
38SGGSultanGanj (3)  18:00+2:2118:02+2:212m--21726.04542mERSultanganj, Bihar
39BGPBhagalpur Junction (6)  18:35+2:0918:50+2:0615m--21750.96949mERBhagalpur, Bihar
40CLGKahalgaon (2)X  19:16+2:1919:18+2:212m121781.03944mERBhagalpur, Bihar
41SBGSahibganj Junction (3)  20:25+2:1520:35+2:1610m121824.94538mERSahibganj, Jharkhand
42BHWBarharwa Junction (3)  21:48+2:1221:50+2:122m221879.34036mERBarharwa, Jharkhand
43NFKNew Farakka Junction (3)  22:17+2:1422:19+2:142m221897.33532mERDist - Murshidabad, West Bengal
44MLDTMalda Town (5)X  23:20+1:5523:35+1:5415m--21932.47430mERDist - Malda, West Bengal
45KNEKishanGanj (3)  01:35+2:3401:40+2:345m--32080.65052mNFRKishanganj, Bihar
46NJPNew Jalpaiguri Junction (8)X  03:25+1:2503:40+1:3215m--32167.949114mNFRCity-Siliguri . Dist-Jalpaiguri, West Bengal
47DQGDhupguri (2)  05:00+2:3905:05+2:415m--32233.26075mNFRDist - Jalpaiguri, West Bengal
48NCBNew Cooch Behar Junction (5)  06:05+2:3906:10+2:425m--32293.44547mNFRDist : Cooch Behar-736101, West Bengal
49NOQNew Alipurduar (2)  06:35+2:4006:40+2:405m--32312.05348mNFRDist - Alipurduar - 736121, West Bengal
50NBQNew Bongaigaon Junction (4)  08:40+2:2108:50+2:2410m--32418.74358mNFR783381., Assam
51BPRDBarpeta Road  09:52+2:2209:57+2:275m--32462.85049mNFRHowli, Assam
52RNYRangiya Junction (5)  11:15+2:2011:25+2:2010m--32527.73858mNFRRangia, Assam
53KYQKamakhya Junction (4)  12:30+2:0412:35+2:035m--32568.31755mNFRDist - KAMRUP, Assam
54GHY•Guwahati (7)•  13:00+1:09---32575.3-60mNFRGuwahati, Assam
Scroll to Top
Scroll to Bottom